Time;durP1;ratioP1;P1;durP2;ratioP2;P2;SDS_P1;SDS_P2;PMS_P1;PMS_P2;Temp;Humidity;BMP_temperature;BMP_pressure;BME280_temperature;BME280_humidity;BME280_pressure;Samples;Min_cycle;Max_cycle;Signal;HPM_P1;HPM_P2
2024/03/28 00:02:02;;;;;;;16.13;3.67;;;;;;;15.59;56.37;98005.47;4959262;28;20549;-78
2024/03/28 00:04:27;;;;;;;15.05;3.63;;;;;;;15.56;56.28;98004.03;4975165;28;20110;-77
2024/03/28 00:06:53;;;;;;;23.25;4.22;;;;;;;15.58;56.37;97999.41;4994542;28;20038;-79
2024/03/28 00:09:19;;;;;;;20.17;3.75;;;;;;;15.56;56.28;97996.94;4963045;28;20383;-76
2024/03/28 00:11:44;;;;;;;14.27;4.00;;;;;;;15.50;56.25;97984.44;4946487;28;20049;-76
2024/03/28 00:14:10;;;;;;;15.20;3.72;;;;;;;15.47;56.26;97984.78;4946929;28;20057;-77
2024/03/28 00:16:35;;;;;;;13.90;3.80;;;;;;;15.49;56.11;97974.09;4963098;28;20034;-77
2024/03/28 00:19:01;;;;;;;21.48;3.78;;;;;;;15.50;56.22;97973.13;4962917;28;20031;-78
2024/03/28 00:21:26;;;;;;;12.93;3.70;;;;;;;15.51;56.30;97977.38;4978169;28;20057;-78
2024/03/28 00:23:52;;;;;;;16.33;3.95;;;;;;;15.53;56.10;97980.69;4978785;28;20030;-78
2024/03/28 00:26:17;;;;;;;18.10;3.60;;;;;;;15.53;56.11;97967.53;4946606;28;20030;-78
2024/03/28 00:28:43;;;;;;;12.43;3.58;;;;;;;15.57;56.20;97960.91;4996757;28;20034;-78
2024/03/28 00:31:09;;;;;;;21.27;4.05;;;;;;;15.55;55.96;97968.97;4962879;28;20109;-78
2024/03/28 00:33:35;;;;;;;16.30;3.88;;;;;;;15.53;55.92;97967.53;4962852;28;20101;-77
2024/03/28 00:36:01;;;;;;;15.13;3.67;;;;;;;15.56;56.04;97973.25;4963052;28;20081;-77
2024/03/28 00:38:26;;;;;;;17.17;3.85;;;;;;;15.58;55.91;97983.63;4962672;28;20118;-77
2024/03/28 00:40:53;;;;;;;19.33;4.25;;;;;;;15.53;55.88;97957.00;4946922;28;20042;-78
2024/03/28 00:43:18;;;;;;;13.10;3.58;;;;;;;15.55;55.93;97966.34;4947342;28;20036;-77
2024/03/28 00:45:44;;;;;;;20.48;4.03;;;;;;;15.59;55.70;97973.91;4947019;28;20042;-78
2024/03/28 00:48:10;;;;;;;17.73;3.60;;;;;;;15.59;55.64;97979.97;4963379;28;20026;-77
2024/03/28 00:50:35;;;;;;;18.73;3.75;;;;;;;15.62;55.76;97981.47;4963252;28;20061;-78
2024/03/28 00:53:01;;;;;;;15.02;3.70;;;;;;;15.62;55.72;97982.28;4963646;28;20026;-78
2024/03/28 00:55:27;;;;;;;15.35;2.95;;;;;;;15.60;55.76;97984.25;4962657;28;20053;-77
2024/03/28 00:57:52;;;;;;;11.82;3.10;;;;;;;15.45;56.18;97962.25;4978244;28;20042;-78
2024/03/28 01:00:18;;;;;;;17.35;4.13;;;;;;;15.47;56.16;97957.66;4978423;28;20142;-78
2024/03/28 01:02:44;;;;;;;12.20;3.38;;;;;;;15.51;56.13;97975.59;4978449;28;20409;-78
2024/03/28 01:05:09;;;;;;;16.38;3.88;;;;;;;15.50;56.22;97981.00;4978168;28;20042;-77
2024/03/28 01:07:35;;;;;;;21.88;3.58;;;;;;;15.52;56.18;97989.53;4961832;28;20042;-77
2024/03/28 01:10:01;;;;;;;12.95;2.88;;;;;;;15.44;56.32;97961.44;4962134;28;20034;-77
2024/03/28 01:12:28;;;;;;;11.60;3.40;;;;;;;15.52;56.14;97968.50;4977396;28;20122;-79
2024/03/28 01:14:54;;;;;;;13.90;3.30;;;;;;;15.52;55.94;97952.72;4961903;28;20057;-76
2024/03/28 01:17:20;;;;;;;21.17;3.45;;;;;;;15.48;56.34;97940.88;4961628;28;20030;-77
2024/03/28 01:19:45;;;;;;;21.02;3.92;;;;;;;15.50;56.21;97968.66;4961067;28;20050;-78
2024/03/28 01:22:10;;;;;;;17.40;3.38;;;;;;;15.49;56.15;97959.13;4961771;28;20033;-77
2024/03/28 01:24:36;;;;;;;13.80;3.55;;;;;;;15.58;56.09;97965.22;4977949;28;20037;-77
2024/03/28 01:27:01;;;;;;;15.80;3.55;;;;;;;15.53;56.04;97981.50;4995390;28;20030;-77
2024/03/28 01:29:30;;;;;;;16.20;3.47;;;;;;;15.50;56.48;97971.28;4961811;28;20034;-78
2024/03/28 01:31:55;;;;;;;;;;;;;;;15.53;56.11;97972.78;4946181;28;20026;-75
2024/03/28 01:34:21;;;;;;;14.65;3.78;;;;;;;15.53;56.00;97972.78;4977246;28;20350;-77
2024/03/28 01:36:46;;;;;;;19.27;3.42;;;;;;;15.58;55.86;97964.41;4961698;28;20027;-77
2024/03/28 01:39:12;;;;;;;11.95;3.55;;;;;;;15.56;55.74;97961.94;4961166;28;20049;-77
2024/03/28 01:41:37;;;;;;;12.80;3.30;;;;;;;15.64;55.60;97974.22;4961719;28;20038;-77
2024/03/28 01:44:03;;;;;;;14.25;3.30;;;;;;;15.65;55.65;97978.50;4961475;28;20042;-78
2024/03/28 01:46:28;;;;;;;13.77;3.38;;;;;;;15.68;55.52;97976.34;4945309;28;20046;-77
2024/03/28 01:48:54;;;;;;;19.33;3.42;;;;;;;15.64;55.36;97958.44;4977283;28;20037;-77
2024/03/28 01:51:20;;;;;;;10.15;2.95;;;;;;;15.70;55.36;97955.97;4961179;28;20106;-76
2024/03/28 01:53:46;;;;;;;9.98;3.22;;;;;;;15.68;55.43;97952.66;4961313;28;20182;-77
2024/03/28 01:56:12;;;;;;;12.05;3.10;;;;;;;15.68;55.21;97965.81;4977098;28;20023;-77
2024/03/28 01:58:37;;;;;;;17.48;3.38;;;;;;;15.68;55.24;97968.44;4945187;28;20117;-77
2024/03/28 02:01:03;;;;;;;13.57;3.03;;;;;;;15.68;55.30;97971.09;4977083;28;20053;-78
2024/03/28 02:03:28;;;;;;;12.95;3.40;;;;;;;15.68;55.36;97973.72;4944865;28;20037;-78
2024/03/28 02:05:54;;;;;;;13.65;3.28;;;;;;;15.68;55.21;97950.03;4960819;28;20054;-77
2024/03/28 02:08:19;;;;;;;17.73;3.70;;;;;;;15.65;55.40;97952.19;4977397;28;20035;-77
2024/03/28 02:10:45;;;;;;;14.27;3.90;;;;;;;15.66;55.27;97964.38;4960994;28;20122;-77
2024/03/28 02:13:11;;;;;;;17.92;3.80;;;;;;;15.65;55.30;97958.25;4960261;28;20050;-78
2024/03/28 02:15:37;;;;;;;18.23;4.80;;;;;;;15.65;55.18;97968.78;4960344;28;20051;-77
2024/03/28 02:18:06;;;;;;;22.67;3.80;;;;;;;15.63;55.24;97972.59;4976728;28;20096;-77
2024/03/28 02:20:31;;;;;;;14.50;3.85;;;;;;;15.58;55.39;97970.47;4961280;28;20478;-77
2024/03/28 02:22:57;;;;;;;14.23;3.22;;;;;;;15.60;55.44;97967.66;4976571;28;20034;-77
2024/03/28 02:25:22;;;;;;;18.63;3.55;;;;;;;15.56;55.38;97961.94;4976876;28;20034;-77
2024/03/28 02:27:48;;;;;;;18.98;3.92;;;;;;;15.57;55.50;97971.44;4960724;28;20083;-77
2024/03/28 02:30:13;;;;;;;16.45;3.58;;;;;;;15.57;55.41;97968.81;4960444;28;20129;-78
2024/03/28 02:32:39;;;;;;;34.72;4.45;;;;;;;15.55;55.42;97966.34;4976762;28;20026;-77
2024/03/28 02:35:05;;;;;;;14.18;3.92;;;;;;;15.55;55.35;97968.16;4976618;28;20387;-81
2024/03/28 02:37:31;;;;;;;12.52;4.10;;;;;;;15.47;55.49;97955.84;4977148;28;20422;-83
2024/03/28 02:39:56;;;;;;;19.15;4.13;;;;;;;15.49;55.54;97963.56;4961801;28;20034;-88
2024/03/28 02:42:23;;;;;;;15.73;3.55;;;;;;;15.47;55.56;97952.41;4946055;28;20125;-87
2024/03/28 02:44:49;;;;;;;15.65;3.60;;;;;;;15.43;55.50;97940.56;4995500;28;20477;-88
2024/03/28 02:47:14;;;;;;;15.63;3.70;;;;;;;15.47;55.69;97949.78;4962038;28;20105;-87
2024/03/28 02:49:40;;;;;;;18.15;3.92;;;;;;;15.38;55.70;97923.47;4967692;28;20053;-88
2024/03/28 02:52:06;;;;;;;15.38;4.40;;;;;;;15.39;55.72;97921.69;4979934;28;20040;-85
2024/03/28 02:54:32;;;;;;;12.80;3.35;;;;;;;15.40;55.87;97940.91;4998610;28;20053;-87
2024/03/28 02:57:04;;;;;;;13.52;4.00;;;;;;;15.37;55.87;97950.78;4983753;28;20030;-89
2024/03/28 02:59:30;;;;;;;13.98;4.03;;;;;;;15.34;55.67;97937.16;5000015;28;20184;-87
2024/03/28 03:01:56;;;;;;;10.63;4.13;;;;;;;15.33;55.76;97930.25;4999936;28;20084;-88
2024/03/28 03:04:22;;;;;;;12.30;3.80;;;;;;;15.31;55.92;97919.06;5027873;28;20030;-85
2024/03/28 03:06:47;;;;;;;11.82;3.65;;;;;;;15.34;55.93;97921.38;4972312;28;20026;-87
2024/03/28 03:09:14;;;;;;;15.43;4.32;;;;;;;15.32;55.99;97934.69;4984242;28;20037;-86
2024/03/28 03:11:40;;;;;;;15.02;4.15;;;;;;;15.25;55.75;97940.78;4966532;28;20489;-87
2024/03/28 03:14:08;;;;;;;16.60;3.95;;;;;;;15.30;55.94;97948.97;5011218;28;20049;-85
2024/03/28 03:16:35;;;;;;;15.60;3.85;;;;;;;15.29;55.93;97947.31;4975330;28;20108;-88
2024/03/28 03:19:01;;;;;;;14.75;4.65;;;;;;;15.29;55.96;97940.28;4981467;28;20040;-88
2024/03/28 03:21:27;;;;;;;17.63;4.13;;;;;;;15.26;55.97;97937.97;4981660;28;20025;-86
2024/03/28 03:24:00;;;;;;;15.85;4.35;;;;;;;15.27;56.02;97939.59;5014627;28;20055;-87
2024/03/28 03:26:30;;;;;;;16.90;4.38;;;;;;;15.27;55.81;97931.72;5015916;28;20022;-89
2024/03/28 03:34:37;;;;;;;19.80;4.05;;;;;;;15.24;55.97;97932.03;4986932;28;20045;-89
2024/03/28 03:37:22;;;;;;;17.17;3.90;;;;;;;15.23;55.91;97930.44;4996877;28;20033;-88
2024/03/28 03:39:59;;;;;;;15.50;4.18;;;;;;;15.16;56.05;97919.75;4981862;28;20122;-89
2024/03/28 03:42:25;;;;;;;19.73;4.53;;;;;;;15.17;56.10;97931.91;4997423;28;20489;-88
2024/03/28 03:44:53;;;;;;;12.25;3.65;;;;;;;15.15;56.01;97925.19;4981879;28;20049;-87
2024/03/28 03:47:21;;;;;;;15.50;4.40;;;;;;;15.17;55.99;97929.28;4982731;28;20505;-88
2024/03/28 03:49:49;;;;;;;12.27;4.03;;;;;;;15.16;56.18;97934.69;4982187;28;20038;-87
2024/03/28 03:52:17;;;;;;;15.23;3.67;;;;;;;15.12;56.11;97923.69;4996939;28;20520;-89
2024/03/28 03:54:43;;;;;;;13.95;3.80;;;;;;;15.15;56.13;97926.00;4981169;28;20030;-87
2024/03/28 03:57:09;;;;;;;16.33;4.15;;;;;;;15.16;56.15;97918.91;4981901;28;20063;-88
2024/03/28 03:59:36;;;;;;;14.82;4.13;;;;;;;15.11;55.93;97908.91;4982147;28;20033;-88
2024/03/28 04:02:02;;;;;;;13.35;3.78;;;;;;;15.14;55.95;97905.13;4980756;28;20034;-87
2024/03/28 04:04:28;;;;;;;14.82;3.83;;;;;;;15.16;55.89;97913.66;4998390;28;20033;-88
2024/03/28 04:06:54;;;;;;;15.70;4.60;;;;;;;15.18;55.88;97919.56;5014561;28;20096;-87
2024/03/28 04:09:20;;;;;;;23.13;5.22;;;;;;;15.17;55.89;97931.91;4998042;28;20037;-87
2024/03/28 04:11:50;;;;;;;12.60;4.95;;;;;;;15.21;55.93;97940.25;4964675;28;20030;-87
2024/03/28 04:14:16;;;;;;;22.33;5.93;;;;;;;15.22;55.90;97938.47;4980704;28;20058;-87
2024/03/28 04:16:41;;;;;;;16.35;5.10;;;;;;;15.22;56.01;97926.16;5014524;28;20026;-88
2024/03/28 04:19:09;;;;;;;15.52;5.55;;;;;;;15.16;55.82;97922.38;5014470;28;20048;-88
2024/03/28 04:21:35;;;;;;;16.73;5.03;;;;;;;15.24;55.70;97924.16;4981217;28;20104;-86
2024/03/28 04:24:03;;;;;;;20.10;5.05;;;;;;;15.27;55.43;97926.47;4981277;28;20049;-87
2024/03/28 04:26:29;;;;;;;14.52;4.47;;;;;;;15.27;55.58;97931.72;4981512;28;20030;-87
2024/03/28 04:28:54;;;;;;;16.55;4.90;;;;;;;15.27;55.49;97926.47;4987418;28;20041;-87
2024/03/28 04:31:21;;;;;;;17.17;4.53;;;;;;;15.31;55.30;97934.84;4969622;28;20033;-86
2024/03/28 04:33:49;;;;;;;19.98;5.07;;;;;;;15.32;55.39;97931.22;5002794;28;20030;-87
2024/03/28 04:36:21;;;;;;;13.25;5.00;;;;;;;15.32;55.47;97926.81;4946504;28;20035;-88
2024/03/28 04:38:47;;;;;;;20.02;5.20;;;;;;;15.28;55.30;97919.41;4963009;28;20462;-88
2024/03/28 04:41:13;;;;;;;19.38;5.10;;;;;;;15.25;55.53;97909.22;4996063;28;20069;-88
2024/03/28 04:43:39;;;;;;;20.25;4.72;;;;;;;15.38;55.40;97941.06;4962545;28;20069;-87
2024/03/28 04:46:04;;;;;;;17.83;4.82;;;;;;;15.37;55.25;97926.31;4966017;28;20042;-87
2024/03/28 04:48:30;;;;;;;15.10;4.53;;;;;;;15.39;55.36;97929.56;4981240;28;20030;-89
2024/03/28 04:50:56;;;;;;;12.68;4.50;;;;;;;15.40;55.27;97928.56;4977520;28;20157;-84
2024/03/28 04:53:22;;;;;;;6.47;2.45;;;;;;;15.47;59.64;97939.25;4979301;28;20037;-86
2024/03/28 04:55:47;;;;;;;15.40;3.10;;;;;;;15.67;59.25;97930.00;4996583;28;20445;-80
2024/03/28 04:58:13;;;;;;;7.82;2.58;;;;;;;15.70;58.64;97928.81;4981020;28;20108;-81
2024/03/28 05:00:38;;;;;;;7.55;3.05;;;;;;;15.73;57.87;97921.44;4963295;28;20398;-81
2024/03/28 05:03:05;;;;;;;10.80;2.78;;;;;;;15.74;57.30;97936.22;4947702;28;20030;-79
2024/03/28 05:05:31;;;;;;;10.30;3.17;;;;;;;15.76;56.67;97951.00;4979257;28;20084;-77
2024/03/28 05:07:56;;;;;;;11.30;3.50;;;;;;;15.65;56.77;97950.38;4963147;28;20034;-79
2024/03/28 05:10:22;;;;;;;15.00;3.70;;;;;;;15.65;56.11;97931.97;4964277;28;20038;-81
2024/03/28 05:12:49;;;;;;;11.82;2.60;;;;;;;15.70;59.96;97931.44;4954564;28;20034;-83
2024/03/28 05:15:15;;;;;;;13.98;2.97;;;;;;;15.90;59.69;97950.34;4962010;28;20049;-83
2024/03/28 05:17:40;;;;;;;11.10;2.90;;;;;;;15.88;58.17;97936.53;4947296;28;20031;-85
2024/03/28 05:20:07;;;;;;;12.50;3.97;;;;;;;15.91;57.29;97946.72;4985294;28;20046;-86
2024/03/28 05:22:33;;;;;;;14.23;4.10;;;;;;;15.88;56.83;97947.88;4958424;28;20034;-83
2024/03/28 05:24:59;;;;;;;23.23;3.33;;;;;;;15.93;57.81;97957.91;4979635;28;20410;-84
2024/03/28 05:27:24;;;;;;;15.40;3.72;;;;;;;16.03;57.98;97947.16;4979284;28;20030;-83
2024/03/28 05:29:49;;;;;;;15.90;3.72;;;;;;;16.06;57.66;97938.91;4963068;28;20512;-81
2024/03/28 05:32:15;;;;;;;14.98;3.50;;;;;;;16.05;56.75;97922.31;4979847;28;20101;-81
2024/03/28 05:34:42;;;;;;;17.30;3.60;;;;;;;16.13;55.94;97939.88;4997377;28;20042;-78
2024/03/28 05:37:08;;;;;;;12.32;3.50;;;;;;;16.15;55.52;97942.34;4946167;28;20172;-85
2024/03/28 05:39:35;;;;;;;13.55;3.72;;;;;;;16.24;55.05;97931.59;4946044;28;20133;-82
2024/03/28 05:42:02;;;;;;;18.17;3.90;;;;;;;16.28;54.70;97927.59;4994332;28;20030;-81
2024/03/28 05:44:27;;;;;;;14.05;4.03;;;;;;;16.32;54.30;97930.72;4960661;28;20141;-82
2024/03/28 05:46:53;;;;;;;11.05;3.65;;;;;;;16.37;54.09;97946.81;4993823;28;20402;-81
2024/03/28 05:49:21;;;;;;;14.65;4.07;;;;;;;16.37;53.65;97938.94;4961182;28;20058;-83
2024/03/28 05:51:47;;;;;;;15.55;4.07;;;;;;;16.44;53.65;97945.13;4960393;28;20524;-81
2024/03/28 05:54:12;;;;;;;16.10;4.43;;;;;;;16.44;53.55;97958.28;4994047;28;20118;-82
2024/03/28 05:56:38;;;;;;;15.65;4.65;;;;;;;16.49;53.29;97956.97;4944118;28;20104;-82
2024/03/28 05:59:03;;;;;;;17.25;4.10;;;;;;;16.52;53.15;97946.09;4961396;28;20046;-85
2024/03/28 06:01:29;;;;;;;14.00;3.95;;;;;;;16.50;52.90;97938.34;4961857;28;20042;-83
2024/03/28 06:03:54;;;;;;;17.05;4.15;;;;;;;16.51;52.70;97957.59;4946306;28;20407;-84
2024/03/28 06:06:20;;;;;;;12.73;4.35;;;;;;;16.56;52.78;97966.63;4962797;28;20030;-83
2024/03/28 06:08:45;;;;;;;12.68;3.90;;;;;;;16.66;52.61;97976.13;4946420;28;20572;-86
2024/03/28 06:11:11;;;;;;;15.88;4.40;;;;;;;16.67;52.39;97970.69;4946576;28;20064;-85
2024/03/28 06:13:36;;;;;;;18.00;6.22;;;;;;;16.79;52.38;97971.94;4962782;28;20379;-81
2024/03/28 06:16:02;;;;;;;16.90;6.65;;;;;;;16.83;52.18;97949.47;4961555;28;20046;-84
2024/03/28 06:18:29;;;;;;;14.73;6.72;;;;;;;16.90;51.95;97969.91;4978379;28;20350;-85
2024/03/28 06:21:04;;;;;;;18.08;6.50;;;;;;;16.94;51.73;97972.00;4977898;28;20038;-82
2024/03/28 06:23:30;;;;;;;22.08;7.15;;;;;;;17.03;51.43;97975.41;4977570;28;20034;-82
2024/03/28 06:25:55;;;;;;;22.25;6.38;;;;;;;17.05;51.25;97970.78;4962031;28;20031;-82
2024/03/28 06:28:21;;;;;;;15.50;6.00;;;;;;;17.11;51.17;97979.78;4962067;28;20498;-82
2024/03/28 06:30:52;;;;;;;17.00;5.68;;;;;;;17.13;51.04;97988.34;4961725;28;20049;-83
2024/03/28 06:33:18;;;;;;;17.55;5.78;;;;;;;17.13;51.12;97972.53;4978684;28;20038;-84
2024/03/28 06:35:44;;;;;;;18.67;5.57;;;;;;;17.17;50.82;97981.72;4976765;28;20027;-76
2024/03/28 06:38:09;;;;;;;14.82;4.88;;;;;;;17.23;52.50;97967.81;4985200;28;20136;-78
2024/03/28 06:40:35;;;;;;;17.77;6.63;;;;;;;17.26;52.62;97977.19;4976417;28;20417;-79
2024/03/28 06:43:01;;;;;;;17.58;6.10;;;;;;;17.24;54.58;97974.75;4962403;28;20026;-84
2024/03/28 06:45:26;;;;;;;16.77;7.82;;;;;;;17.19;53.58;97977.09;4945995;28;20394;-84
2024/03/28 06:47:53;;;;;;;21.40;9.27;;;;;;;17.18;53.34;97992.09;4963402;28;20104;-83
2024/03/28 06:50:19;;;;;;;24.88;10.63;;;;;;;17.05;52.87;97981.31;4963533;28;20375;-84
2024/03/28 06:52:44;;;;;;;25.83;12.52;;;;;;;17.10;52.96;98000.06;4963002;28;20117;-83
2024/03/28 06:55:10;;;;;;;23.33;12.68;;;;;;;17.06;52.83;97982.13;4963196;28;20037;-83
2024/03/28 06:57:35;;;;;;;29.75;16.00;;;;;;;16.97;52.74;97986.66;4946075;28;20050;-83
2024/03/28 07:00:01;;;;;;;28.45;15.15;;;;;;;17.02;52.75;98005.41;4946350;28;20038;-83
2024/03/28 07:02:27;;;;;;;31.33;13.57;;;;;;;16.99;52.40;97984.66;4962968;28;20035;-83
2024/03/28 07:04:53;;;;;;;24.75;12.77;;;;;;;16.94;52.47;97984.38;4962093;28;20026;-81
2024/03/28 07:07:18;;;;;;;27.48;12.43;;;;;;;16.87;52.56;97989.50;4963274;28;20026;-85
2024/03/28 07:09:44;;;;;;;28.50;12.50;;;;;;;16.88;52.61;98011.44;4946972;28;20045;-85
2024/03/28 07:12:10;;;;;;;33.83;11.30;;;;;;;16.90;52.48;98012.88;4947261;28;20058;-85
2024/03/28 07:14:35;;;;;;;17.17;9.32;;;;;;;16.88;52.42;98014.06;4965184;28;20046;-85
2024/03/28 07:17:01;;;;;;;22.77;9.90;;;;;;;16.89;52.25;98008.63;4958132;28;20019;-86
2024/03/28 07:19:27;;;;;;;25.95;9.05;;;;;;;16.91;52.16;98011.91;4955461;28;20051;-85
2024/03/28 07:21:52;;;;;;;20.27;8.45;;;;;;;16.83;51.97;97991.66;4946169;28;20041;-85
2024/03/28 07:24:17;;;;;;;24.40;9.23;;;;;;;16.89;51.80;98005.16;4963975;28;20030;-83
2024/03/28 07:26:43;;;;;;;20.08;9.20;;;;;;;16.96;51.93;98003.47;4947560;28;20026;-77
2024/03/28 07:29:08;;;;;;;27.75;10.32;;;;;;;16.97;52.01;98010.38;4993462;28;20474;-77
2024/03/28 07:31:37;;;;;;;14.18;6.55;;;;;;;17.03;56.57;98004.41;4993989;28;20053;-79
2024/03/28 07:34:03;;;;;;;11.35;4.57;;;;;;;17.30;58.81;98015.38;4962768;28;20034;-78
2024/03/28 07:36:28;;;;;;;12.32;5.10;;;;;;;17.55;58.20;98002.81;4977535;28;20041;-84
2024/03/28 07:38:54;;;;;;;20.73;5.30;;;;;;;17.72;56.87;97998.19;4944040;28;20036;-76
2024/03/28 07:41:19;;;;;;;16.98;5.78;;;;;;;17.75;56.17;98000.47;4993377;28;20023;-77
2024/03/28 07:43:45;;;;;;;18.52;5.75;;;;;;;17.79;55.38;97996.47;4959743;28;20096;-74
2024/03/28 07:46:10;;;;;;;19.35;6.45;;;;;;;17.86;54.77;98010.56;4975738;28;20402;-78
2024/03/28 07:48:37;;;;;;;17.35;6.28;;;;;;;17.94;54.31;98009.69;4992956;28;20038;-77
2024/03/28 07:51:03;;;;;;;13.77;5.75;;;;;;;17.99;54.18;98004.69;4992837;28;20183;-77
2024/03/28 07:53:29;;;;;;;16.92;5.82;;;;;;;18.07;53.71;98001.13;4960583;28;20026;-77
2024/03/28 07:55:55;;;;;;;14.50;4.22;;;;;;;18.27;55.05;98004.84;4959711;28;20482;-80
2024/03/28 07:58:21;;;;;;;18.05;5.43;;;;;;;18.71;53.82;98016.34;4958386;28;20074;-77
2024/03/28 08:00:46;;;;;;;9.90;4.30;;;;;;;18.89;52.84;98021.22;4992753;28;20030;-80
2024/03/28 08:03:20;;;;;;;13.80;4.60;;;;;;;19.09;52.31;98018.00;4975144;28;20049;-78
2024/03/28 08:05:48;;;;;;;12.10;4.00;;;;;;;19.19;51.83;98005.25;4962165;28;20111;-79
2024/03/28 08:08:14;;;;;;;11.30;3.90;;;;;;;19.28;51.13;98005.94;4976212;28;20037;-79
2024/03/28 08:10:39;;;;;;;12.50;4.15;;;;;;;19.39;50.89;98000.13;4944717;28;20030;-80
2024/03/28 08:13:05;;;;;;;10.07;3.45;;;;;;;19.48;50.61;97998.13;4992992;28;20355;-69
2024/03/28 08:15:33;;;;;;;10.35;3.88;;;;;;;19.55;50.36;97999.03;4975167;28;20039;-70
2024/03/28 08:18:00;;;;;;;13.95;3.95;;;;;;;19.62;50.16;97999.88;4944136;28;20061;-69
2024/03/28 08:20:28;;;;;;;13.02;4.40;;;;;;;19.72;49.84;98002.19;4992208;28;20461;-69
2024/03/28 08:22:53;;;;;;;14.05;4.35;;;;;;;19.93;49.38;98008.47;4975613;28;20034;-70
2024/03/28 08:25:19;;;;;;;9.50;3.63;;;;;;;20.11;49.08;98005.28;4975507;28;20382;-73
2024/03/28 08:27:44;;;;;;;15.13;3.72;;;;;;;20.32;48.63;98020.25;4960655;28;20030;-70
2024/03/28 08:30:11;;;;;;;14.18;3.85;;;;;;;20.45;48.01;98022.16;4996739;28;20097;-71
2024/03/28 08:33:11;;;;;;;14.65;3.30;;;;;;;20.61;48.36;98027.13;4962912;28;20030;-79
2024/03/28 08:35:40;;;;;;;15.50;4.03;;;;;;;20.69;47.95;98028.81;4962736;28;20030;-82
2024/03/28 08:38:07;;;;;;;22.88;5.68;;;;;;;20.79;51.68;98031.88;4962662;28;20062;-81
2024/03/28 08:40:33;;;;;;;23.47;4.30;;;;;;;20.80;47.68;98014.97;4979211;28;20030;-78
2024/03/28 08:42:59;;;;;;;19.77;4.75;;;;;;;20.87;49.88;98020.28;4979117;28;20034;-81
2024/03/28 08:45:34;;;;;;;20.60;4.60;;;;;;;20.92;49.28;98028.44;4979528;28;20049;-77
2024/03/28 08:48:00;;;;;;;21.00;4.57;;;;;;;20.98;49.26;98034.78;4978806;28;20034;-82
2024/03/28 08:50:26;;;;;;;18.60;3.88;;;;;;;21.04;48.82;98042.75;4963345;28;20181;-80
2024/03/28 08:52:54;;;;;;;17.45;4.50;;;;;;;21.10;47.98;98039.31;4979335;28;20125;-84
2024/03/28 08:55:20;;;;;;;23.00;4.45;;;;;;;21.24;46.92;98042.00;4963248;28;20033;-70
2024/03/28 09:11:15;;;;;;;13.55;3.92;;;;;;;22.35;46.70;98049.28;4996139;28;20048;-79
2024/03/28 09:13:41;;;;;;;13.90;3.83;;;;;;;22.55;46.33;98048.38;4962065;28;20045;-80
2024/03/28 09:16:09;;;;;;;17.83;4.10;;;;;;;22.62;46.12;98064.31;4948343;28;20050;-78
2024/03/28 09:18:35;;;;;;;;;;;;;;;22.73;46.12;98071.63;4949039;28;20114;-79
2024/03/28 09:21:08;;;;;;;16.08;3.95;;;;;;;22.88;45.71;98058.88;4964363;28;19917;-87
2024/03/28 09:23:38;;;;;;;18.60;4.07;;;;;;;23.01;45.17;98055.31;4966887;28;20050;-79
2024/03/28 09:26:03;;;;;;;21.83;3.72;;;;;;;23.14;44.88;98043.81;4946418;28;20126;-83
2024/03/28 09:28:30;;;;;;;8.55;3.03;;;;;;;23.26;44.70;98035.94;4962344;28;20038;-75
2024/03/28 09:30:55;;;;;;;16.13;4.28;;;;;;;23.48;44.21;98041.69;4948717;28;20042;-79
2024/03/28 09:33:21;;;;;;;16.60;3.90;;;;;;;23.80;43.66;98031.00;4949247;28;20045;-80
2024/03/28 09:35:47;;;;;;;18.15;3.63;;;;;;;24.08;42.58;98016.38;4963385;28;20031;-83
2024/03/28 09:38:12;;;;;;;18.60;3.63;;;;;;;24.20;42.08;98023.41;4946492;28;20129;-84
2024/03/28 09:40:51;;;;;;;14.25;3.85;;;;;;;24.22;41.46;98017.03;4946666;28;20068;-82
2024/03/28 09:43:18;;;;;;;18.23;4.10;;;;;;;24.46;40.92;98023.31;4979197;28;20031;-81
2024/03/28 09:45:43;;;;;;;16.88;3.70;;;;;;;24.80;40.21;98027.22;4962602;28;20500;-77
2024/03/28 09:48:10;;;;;;;12.10;3.33;;;;;;;24.98;40.07;98029.00;4977839;28;20042;-77
2024/03/28 09:50:36;;;;;;;17.42;4.05;;;;;;;25.42;38.86;98021.59;4963865;28;20057;-85
2024/03/28 09:53:01;;;;;;;12.02;3.47;;;;;;;25.93;37.67;98013.91;4949690;28;20030;-86
2024/03/28 09:55:27;;;;;;;18.30;4.00;;;;;;;26.43;36.98;98022.47;4964957;28;20053;-86
2024/03/28 09:57:52;;;;;;;11.77;3.83;;;;;;;26.66;36.57;98025.09;4949600;28;20080;-85
2024/03/28 10:00:18;;;;;;;12.07;3.60;;;;;;;27.06;35.75;98018.84;4963796;28;20042;-89
2024/03/28 10:02:53;;;;;;;20.83;3.85;;;;;;;27.25;35.59;98021.31;4947025;28;20396;-77
2024/03/28 10:05:19;;;;;;;12.10;3.53;;;;;;;27.31;35.85;98020.38;4962670;28;20105;-78
2024/03/28 10:07:47;;;;;;;15.52;3.58;;;;;;;27.39;35.25;98014.59;4961667;28;20073;-79
2024/03/28 10:10:13;;;;;;;15.10;3.40;;;;;;;27.64;35.02;98017.91;4962092;28;20031;-78
2024/03/28 10:12:38;;;;;;;13.27;3.15;;;;;;;27.88;34.67;98013.97;4961758;28;20030;-79
2024/03/28 10:15:05;;;;;;;11.48;3.20;;;;;;;28.03;34.73;98021.44;4945451;28;20085;-78
2024/03/28 10:17:31;;;;;;;12.50;3.15;;;;;;;28.26;34.40;98023.09;4961871;28;20018;-78
2024/03/28 10:20:07;;;;;;;16.55;3.25;;;;;;;28.44;34.18;98015.78;4945513;28;20070;-79
2024/03/28 10:22:41;;;;;;;13.55;3.05;;;;;;;28.56;34.43;98018.31;4994858;28;20026;-80
2024/03/28 10:25:17;;;;;;;15.05;3.47;;;;;;;28.64;33.97;98021.41;4947703;28;20035;-79
2024/03/28 10:27:42;;;;;;;12.60;3.15;;;;;;;28.59;34.13;98024.03;4961390;28;20129;-79
2024/03/28 10:30:11;;;;;;;16.58;4.03;;;;;;;28.57;34.22;98023.44;4961994;28;20034;-78
2024/03/28 10:32:37;;;;;;;13.00;3.28;;;;;;;28.52;33.92;98024.19;4961631;28;20030;-79
2024/03/28 10:35:03;;;;;;;19.48;3.92;;;;;;;28.59;33.67;98031.28;4961700;28;20448;-78
2024/03/28 10:37:29;;;;;;;19.20;4.20;;;;;;;28.67;33.65;98033.50;4977270;28;20088;-78
2024/03/28 10:39:54;;;;;;;21.63;3.97;;;;;;;28.67;33.39;98028.13;4960951;28;20050;-79
2024/03/28 10:42:20;;;;;;;24.17;5.00;;;;;;;28.63;33.20;98027.84;4961689;28;20069;-76
2024/03/28 10:44:46;;;;;;;20.02;4.07;;;;;;;28.50;33.15;98036.25;4945523;28;20129;-81
2024/03/28 10:47:12;;;;;;;23.70;4.30;;;;;;;28.33;32.77;98028.25;4945353;28;20113;-80
2024/03/28 10:50:05;;;;;;;25.40;4.45;;;;;;;28.26;33.13;98033.81;4960650;28;20069;-79
2024/03/28 10:52:41;;;;;;;18.77;4.35;;;;;;;28.28;33.17;98033.56;4977006;28;20097;-78
2024/03/28 10:55:08;;;;;;;23.83;5.18;;;;;;;28.34;33.31;98033.38;4961238;28;20120;-79
2024/03/28 10:57:34;;;;;;;22.23;4.47;;;;;;;28.35;33.22;98039.56;4960629;28;20026;-78
2024/03/28 10:59:59;;;;;;;23.05;4.75;;;;;;;28.30;33.22;98029.56;4960412;28;20818;-78
2024/03/28 11:02:27;;;;;;;26.25;5.20;;;;;;;28.28;33.40;98044.31;4960689;28;20030;-78
2024/03/28 11:04:53;;;;;;;22.42;4.97;;;;;;;28.26;33.60;98033.81;4945022;28;20030;-77
2024/03/28 11:07:19;;;;;;;26.83;4.55;;;;;;;28.20;33.83;98040.19;4944278;28;20117;-78
2024/03/28 11:09:44;;;;;;;23.45;5.10;;;;;;;28.14;33.83;98028.56;4960405;28;20034;-77
2024/03/28 11:12:10;;;;;;;22.17;4.80;;;;;;;28.05;33.92;98029.25;4944352;28;20038;-78
2024/03/28 11:14:35;;;;;;;21.33;4.63;;;;;;;28.03;34.18;98031.38;4959985;28;20147;-78
2024/03/28 11:17:04;;;;;;;24.55;5.07;;;;;;;27.97;34.36;98022.44;4944243;28;20031;-79
2024/03/28 11:19:30;;;;;;;24.23;5.03;;;;;;;27.97;34.30;98017.06;4961150;28;20041;-79
2024/03/28 11:21:57;;;;;;;23.20;4.70;;;;;;;27.91;34.52;98032.25;4944176;28;20057;-78
2024/03/28 11:24:28;;;;;;;21.45;4.63;;;;;;;27.85;34.67;98024.38;4961195;28;20462;-77
2024/03/28 11:26:54;;;;;;;18.27;4.85;;;;;;;27.80;34.88;98023.25;4960840;28;20030;-78
2024/03/28 11:29:23;;;;;;;29.17;4.93;;;;;;;27.71;34.74;98026.59;4943808;28;20037;-76
2024/03/28 11:31:59;;;;;;;24.42;4.43;;;;;;;27.65;34.85;98028.38;4959988;28;20030;-76
2024/03/28 11:34:28;;;;;;;23.40;4.95;;;;;;;27.55;35.17;98022.88;4976040;28;20462;-78
2024/03/28 11:36:54;;;;;;;25.83;4.38;;;;;;;27.48;35.15;98031.06;4944185;28;20034;-77
2024/03/28 11:39:20;;;;;;;30.35;5.57;;;;;;;27.38;35.32;98042.44;4959596;28;20105;-77
2024/03/28 11:41:45;;;;;;;30.25;5.22;;;;;;;27.32;35.01;98031.91;4959292;28;20453;-77
2024/03/28 11:44:12;;;;;;;23.73;5.05;;;;;;;27.18;35.26;98024.13;4943455;28;20053;-79